Golden Iris — 3FZK4 — position and weather

sailwx.info

Track history (hours):
 
Tides and Currents Weather Stations Pressure Air Temp Water Temp Dewpoint Dewpoint Depression Visibility Wind Speed Wind Dir Waves Ship Positions

Golden Iris

Last reported at 2016-Sep-25 10:33 UTC. Time now 2016-Sep-29 06:47 UTC.
Position N 32°55' E 034°54'.

Length 163 m; draft 6 m.

Type: Passenger vessel. MMSI: 371771000.

Date/timePositionNaut miles runAvg speedWind from/ knotsBaromVisibWave heightAir tempDewpointWater temp
2016-Sep-25 10:33N 32°55' E 034°54'8 7.9
2016-Sep-25 09:33N 32°49' E 035°00'0 0.1
2016-Sep-25 07:33N 32°49' E 035°00'0 0.0
2016-Sep-25 04:33N 32°49' E 035°00'  
2016-Sep-22 12:31N 32°50' E 034°60'1 0.2
2016-Sep-22 04:33N 32°50' E 035°01'10 9.4
2016-Sep-22 03:32N 32°53' E 034°51'  
2016-Sep-19 14:27N 34°36' E 032°42'1112.5
2016-Sep-19 13:33N 34°32' E 032°55'9 9.3
2016-Sep-19 12:33N 34°37' E 033°04'3 2.8
2016-Sep-19 11:31N 34°39' E 033°01'0 0.0
2016-Sep-19 09:28N 34°39' E 033°01'0 0.0
2016-Sep-19 06:10N 34°39' E 033°01'7 2.5
2016-Sep-19 03:29N 34°35' E 033°08'8 8.2
2016-Sep-19 02:33N 34°29' E 033°13'16 8.0
2016-Sep-19 00:33N 34°17' E 033°26'82 8.2
2016-Sep-18 14:31N 33°12' E 034°27'32 8.0
2016-Sep-18 10:33N 32°53' E 034°57'4 4.3
2016-Sep-18 09:33N 32°49' E 035°00'76 6.8
2016-Sep-17 22:22N 33°11' E 033°33'4913.4
2016-Sep-17 18:42N 33°28' E 032°37'7314.0
2016-Sep-17 13:28N 33°55' E 031°16'1313.8
2016-Sep-17 12:34N 33°59' E 031°01'3114.2
2016-Sep-17 10:23N 34°11' E 030°27'1314.4
2016-Sep-17 09:27N 34°16' E 030°12'345 9.6
2016-Sep-15 21:29N 37°04' E 024°01'1414.2
2016-Sep-15 20:29N 37°17' E 023°53'2613.6
2016-Sep-15 18:34N 37°41' E 023°42'15 2.5
2016-Sep-15 12:33N 37°56' E 023°38'0 0.0
2016-Sep-15 11:30N 37°56' E 023°38'  
Track history (hours):
 
Tides and Currents Weather Stations Pressure Air Temp Water Temp Dewpoint Dewpoint Depression Visibility Wind Speed Wind Dir Waves Ship Positions

Golden Iris

Last reported at 2016-Sep-25 10:33 UTC. Time now 2016-Sep-29 06:47 UTC.
Position N 32°55' E 034°54'.

Length 163 m; draft 6 m.

Type: Passenger vessel. MMSI: 371771000.

Date/timePositionNaut miles runAvg speedWind from/ knotsBaromVisibWave heightAir tempDewpointWater temp
2016-Sep-25 10:33N 32°55' E 034°54'8 7.9
2016-Sep-25 09:33N 32°49' E 035°00'0 0.1
2016-Sep-25 07:33N 32°49' E 035°00'0 0.0
2016-Sep-25 04:33N 32°49' E 035°00'  
2016-Sep-22 12:31N 32°50' E 034°60'1 0.2
2016-Sep-22 04:33N 32°50' E 035°01'10 9.4
2016-Sep-22 03:32N 32°53' E 034°51'  
2016-Sep-19 14:27N 34°36' E 032°42'1112.5
2016-Sep-19 13:33N 34°32' E 032°55'9 9.3
2016-Sep-19 12:33N 34°37' E 033°04'3 2.8
2016-Sep-19 11:31N 34°39' E 033°01'0 0.0
2016-Sep-19 09:28N 34°39' E 033°01'0 0.0
2016-Sep-19 06:10N 34°39' E 033°01'7 2.5
2016-Sep-19 03:29N 34°35' E 033°08'8 8.2
2016-Sep-19 02:33N 34°29' E 033°13'16 8.0
2016-Sep-19 00:33N 34°17' E 033°26'82 8.2
2016-Sep-18 14:31N 33°12' E 034°27'32 8.0
2016-Sep-18 10:33N 32°53' E 034°57'4 4.3
2016-Sep-18 09:33N 32°49' E 035°00'76 6.8
2016-Sep-17 22:22N 33°11' E 033°33'4913.4
2016-Sep-17 18:42N 33°28' E 032°37'7314.0
2016-Sep-17 13:28N 33°55' E 031°16'1313.8
2016-Sep-17 12:34N 33°59' E 031°01'3114.2
2016-Sep-17 10:23N 34°11' E 030°27'1314.4
2016-Sep-17 09:27N 34°16' E 030°12'345 9.6
2016-Sep-15 21:29N 37°04' E 024°01'1414.2
2016-Sep-15 20:29N 37°17' E 023°53'2613.6
2016-Sep-15 18:34N 37°41' E 023°42'15 2.5
2016-Sep-15 12:33N 37°56' E 023°38'0 0.0
2016-Sep-15 11:30N 37°56' E 023°38'  

Dump ship's entire track history